Time;durP1;ratioP1;P1;durP2;ratioP2;P2;SDS_P1;SDS_P2;PMS_P1;PMS_P2;Temp;Humidity;BMP_temperature;BMP_pressure;BME280_temperature;BME280_humidity;BME280_pressure;Samples;Min_cycle;Max_cycle;Signal;HPM_P1;HPM_P2
2020/12/18 00:00:35;;;;;;;1.50;0.75;;;23.40;37.70;;;;;;5035124;28;20038;-49
2020/12/18 00:03:01;;;;;;;1.98;0.98;;;23.40;37.70;;;;;;5032982;28;20056;-51
2020/12/18 00:05:32;;;;;;;3.05;0.95;;;23.40;37.80;;;;;;5034699;28;20425;-48
2020/12/18 00:07:59;;;;;;;1.02;0.60;;;23.40;37.80;;;;;;5034847;28;20022;-50
2020/12/18 00:10:26;;;;;;;1.30;0.80;;;23.40;37.80;;;;;;5034878;28;20058;-49
2020/12/18 00:12:53;;;;;;;1.27;0.68;;;23.30;37.80;;;;;;5032834;28;20104;-48
2020/12/18 00:15:23;;;;;;;1.27;0.70;;;23.30;37.80;;;;;;5035040;28;20575;-46
2020/12/18 00:17:49;;;;;;;1.60;0.75;;;23.30;37.80;;;;;;5034056;28;20532;-51
2020/12/18 00:20:14;;;;;;;1.35;0.88;;;23.30;37.90;;;;;;5032086;28;20117;-52
2020/12/18 00:22:40;;;;;;;1.40;1.05;;;23.30;37.90;;;;;;5032628;28;20067;-50
2020/12/18 00:25:06;;;;;;;2.03;0.90;;;23.20;37.90;;;;;;5035070;28;20457;-50
2020/12/18 00:27:32;;;;;;;2.53;0.73;;;23.20;37.90;;;;;;5032209;28;20021;-52
2020/12/18 00:29:57;;;;;;;1.65;0.70;;;23.20;37.90;;;;;;5034920;28;20067;-50
2020/12/18 00:32:23;;;;;;;1.30;0.70;;;23.20;37.90;;;;;;5016180;28;20444;-48
2020/12/18 00:34:49;;;;;;;1.92;0.80;;;23.20;38.00;;;;;;5034843;28;20033;-49
2020/12/18 00:37:15;;;;;;;3.60;0.82;;;23.20;38.00;;;;;;5033986;28;20040;-48
2020/12/18 00:39:41;;;;;;;0.93;0.70;;;23.20;38.00;;;;;;5033107;28;20154;-48
2020/12/18 00:42:06;;;;;;;1.35;0.80;;;23.20;38.00;;;;;;5032544;28;20104;-51
2020/12/18 00:44:32;;;;;;;2.28;0.80;;;23.20;38.10;;;;;;5033807;28;20352;-47
2020/12/18 00:46:58;;;;;;;1.67;0.80;;;23.10;38.00;;;;;;5032735;28;20029;-50
2020/12/18 00:49:24;;;;;;;1.95;0.80;;;23.10;38.00;;;;;;5014590;28;20103;-47
2020/12/18 00:51:53;;;;;;;1.80;0.80;;;23.10;38.00;;;;;;5033289;28;20412;-49
2020/12/18 00:54:19;;;;;;;1.55;1.02;;;23.10;38.00;;;;;;5014459;28;20482;-50
2020/12/18 00:56:45;;;;;;;0.90;0.70;;;23.10;38.00;;;;;;5027494;28;20105;-51
2020/12/18 00:59:11;;;;;;;2.10;0.73;;;23.10;38.10;;;;;;5033667;28;20405;-48
2020/12/18 01:01:38;;;;;;;0.98;0.60;;;23.00;38.00;;;;;;5013205;28;20026;-51
2020/12/18 01:04:04;;;;;;;2.75;0.80;;;23.00;38.00;;;;;;5016226;28;20095;-48
2020/12/18 01:06:30;;;;;;;2.47;1.13;;;23.00;38.00;;;;;;5016600;28;20037;-49
2020/12/18 01:09:00;;;;;;;2.00;0.73;;;23.10;38.10;;;;;;5012951;28;20083;-55
2020/12/18 01:11:30;;;;;;;1.65;0.75;;;23.00;38.10;;;;;;5032243;28;20120;-53
2020/12/18 01:13:56;;;;;;;1.52;0.77;;;23.00;38.10;;;;;;5026932;28;20061;-54
2020/12/18 01:16:23;;;;;;;1.42;0.70;;;23.00;38.10;;;;;;5014771;28;20030;-54
2020/12/18 01:18:56;;;;;;;1.25;0.68;;;23.00;38.10;;;;;;5015897;28;20079;-52
2020/12/18 01:21:22;;;;;;;1.10;0.60;;;23.00;38.10;;;;;;5012036;28;20104;-54
2020/12/18 01:23:47;;;;;;;0.88;0.57;;;22.90;38.10;;;;;;5014673;28;20112;-52
2020/12/18 01:26:14;;;;;;;2.22;0.70;;;22.90;38.10;;;;;;5015045;28;20368;-50
2020/12/18 01:28:41;;;;;;;1.35;0.60;;;22.90;38.10;;;;;;5014663;28;20068;-53
2020/12/18 01:31:07;;;;;;;1.88;0.63;;;22.90;38.10;;;;;;5015189;28;20025;-52
2020/12/18 01:33:34;;;;;;;1.70;0.70;;;22.90;38.10;;;;;;5033195;28;20068;-54
2020/12/18 01:36:08;;;;;;;1.65;0.73;;;22.90;38.20;;;;;;5013997;28;20091;-51
2020/12/18 01:38:37;;;;;;;2.35;0.80;;;22.90;38.20;;;;;;5015175;28;20064;-51
2020/12/18 01:41:02;;;;;;;2.28;0.80;;;22.90;38.20;;;;;;5030659;28;20049;-52
2020/12/18 01:43:28;;;;;;;2.13;0.77;;;22.90;38.20;;;;;;5033145;28;20095;-51
2020/12/18 01:45:59;;;;;;;1.17;0.63;;;22.90;38.20;;;;;;5032031;28;20045;-50
2020/12/18 01:48:25;;;;;;;1.67;0.65;;;22.80;38.20;;;;;;5033167;28;20425;-51
2020/12/18 01:50:58;;;;;;;1.23;0.70;;;22.80;38.20;;;;;;5013570;28;20113;-50
2020/12/18 01:53:29;;;;;;;1.42;0.77;;;22.80;38.20;;;;;;5015100;28;20037;-50
2020/12/18 01:56:09;;;;;;;1.02;0.60;;;22.80;38.30;;;;;;5013477;28;20449;-52
2020/12/18 01:58:40;;;;;;;0.93;0.65;;;22.80;38.30;;;;;;5029125;28;20025;-48
2020/12/18 02:01:11;;;;;;;2.30;0.80;;;22.80;38.30;;;;;;5009384;28;20026;-50
2020/12/18 02:03:55;;;;;;;2.25;0.65;;;22.80;38.30;;;;;;5008205;28;20042;-52
2020/12/18 02:06:31;;;;;;;1.00;0.50;;;22.70;38.30;;;;;;4996064;28;20025;-50
2020/12/18 02:09:11;;;;;;;1.05;0.70;;;22.80;38.30;;;;;;4995494;28;20038;-52
2020/12/18 02:11:44;;;;;;;1.10;0.60;;;22.70;38.30;;;;;;5012463;28;20404;-50
2020/12/18 02:14:15;;;;;;;1.38;0.70;;;22.70;38.30;;;;;;4994570;28;20053;-50
2020/12/18 02:16:45;;;;;;;1.20;0.70;;;22.70;38.40;;;;;;4995218;28;20026;-49
2020/12/18 02:19:19;;;;;;;1.13;0.75;;;22.70;38.40;;;;;;4995524;28;20353;-51
2020/12/18 02:21:46;;;;;;;1.58;0.70;;;22.70;38.40;;;;;;4994159;28;20487;-53
2020/12/18 02:24:47;;;;;;;2.00;0.82;;;22.70;38.40;;;;;;4995307;28;20030;-53
2020/12/18 02:27:13;;;;;;;1.38;0.77;;;22.70;38.40;;;;;;4994123;28;20434;-50
2020/12/18 02:29:46;;;;;;;0.90;0.80;;;22.60;38.40;;;;;;4998478;28;20034;-54
2020/12/18 02:32:11;;;;;;;1.33;0.70;;;22.70;38.40;;;;;;4999316;28;20115;-51
2020/12/18 02:34:47;;;;;;;3.58;0.90;;;22.70;38.40;;;;;;4998349;28;20088;-50
2020/12/18 02:37:23;;;;;;;1.65;0.85;;;22.60;38.30;;;;;;4999390;28;20018;-53
2020/12/18 02:39:55;;;;;;;1.65;0.93;;;22.60;38.40;;;;;;4998257;28;20022;-52
2020/12/18 02:42:34;;;;;;;1.67;0.80;;;22.60;38.40;;;;;;4999215;28;20453;-48
2020/12/18 02:45:00;;;;;;;1.25;0.60;;;22.60;38.40;;;;;;5015597;28;20306;-52
2020/12/18 02:47:47;;;;;;;1.90;0.60;;;22.60;38.40;;;;;;4979894;28;20033;-52
2020/12/18 02:50:26;;;;;;;1.55;0.63;;;22.60;38.40;;;;;;4997448;28;20036;-48
2020/12/18 02:52:56;;;;;;;1.55;0.80;;;22.60;38.40;;;;;;5016938;28;20033;-52
2020/12/18 02:55:42;;;;;;;1.40;0.70;;;22.60;38.40;;;;;;5014770;28;20057;-49
2020/12/18 02:58:33;;;;;;;1.45;0.70;;;22.60;38.40;;;;;;5005991;28;20029;-48
2020/12/18 03:01:00;;;;;;;1.13;0.70;;;22.50;38.40;;;;;;5014526;28;20436;-52
2020/12/18 03:03:26;;;;;;;1.58;0.63;;;22.50;38.40;;;;;;5019773;28;20045;-47
2020/12/18 03:06:05;;;;;;;0.95;0.70;;;22.50;38.40;;;;;;5019997;28;20033;-51
2020/12/18 03:08:39;;;;;;;0.82;0.60;;;22.50;38.40;;;;;;5036105;28;20048;-49
2020/12/18 03:11:08;;;;;;;1.38;0.70;;;22.50;38.40;;;;;;5032999;28;20037;-51
2020/12/18 03:13:34;;;;;;;2.15;0.73;;;22.50;38.50;;;;;;5036154;28;20373;-52
2020/12/18 03:16:00;;;;;;;1.48;0.70;;;22.50;38.50;;;;;;5018194;28;20025;-46
2020/12/18 03:18:43;;;;;;;0.95;0.60;;;22.50;38.50;;;;;;5016361;28;20120;-49
2020/12/18 03:21:12;;;;;;;1.90;0.70;;;22.50;38.50;;;;;;5017576;28;20029;-48
2020/12/18 03:24:04;;;;;;;1.17;0.70;;;22.40;38.40;;;;;;5035471;28;20041;-49
2020/12/18 03:27:05;;;;;;;9.27;1.05;;;22.50;39.10;;;;;;4951956;29;20043;-49
2020/12/18 03:29:37;;;;;;;1.27;0.60;;;22.40;38.50;;;;;;5016923;28;20033;-51
2020/12/18 03:32:03;;;;;;;2.72;0.68;;;22.40;38.50;;;;;;5035665;28;20040;-51
2020/12/18 03:34:31;;;;;;;1.33;0.82;;;22.40;38.50;;;;;;5016700;28;20048;-50
2020/12/18 03:37:23;;;;;;;0.77;0.50;;;22.40;38.60;;;;;;5017661;28;20053;-48
2020/12/18 03:39:50;;;;;;;1.85;0.75;;;22.40;38.60;;;;;;5011623;28;20049;-53
2020/12/18 03:42:23;;;;;;;0.73;0.50;;;22.40;38.60;;;;;;5017549;28;20089;-47
2020/12/18 03:44:50;;;;;;;0.85;0.68;;;22.40;38.60;;;;;;5017880;28;20029;-51
2020/12/18 03:47:30;;;;;;;2.05;0.70;;;22.40;38.60;;;;;;5015144;28;20514;-47
2020/12/18 03:50:08;;;;;;;1.23;0.60;;;22.40;38.70;;;;;;5032932;28;20436;-49
2020/12/18 03:52:34;;;;;;;1.35;0.60;;;22.40;38.60;;;;;;5017642;28;20033;-49
2020/12/18 03:55:01;;;;;;;1.30;0.60;;;22.40;38.60;;;;;;5016113;28;20456;-49
2020/12/18 03:57:45;;;;;;;0.98;0.70;;;22.40;38.60;;;;;;5032288;28;20138;-50
2020/12/18 04:00:43;;;;;;;1.10;0.75;;;22.30;38.50;;;;;;4999854;28;20041;-49
2020/12/18 04:03:10;;;;;;;1.30;0.70;;;22.30;38.60;;;;;;5017202;28;20025;-48
2020/12/18 04:05:36;;;;;;;1.20;0.45;;;22.30;38.60;;;;;;5033120;28;20424;-47
2020/12/18 04:08:06;;;;;;;1.15;0.68;;;22.30;38.60;;;;;;5017217;28;20480;-50
2020/12/18 04:11:04;;;;;;;2.00;0.80;;;22.30;38.60;;;;;;5014054;28;20034;-48
2020/12/18 04:13:56;;;;;;;1.63;0.68;;;22.30;38.70;;;;;;5007491;28;20045;-51
2020/12/18 04:16:28;;;;;;;1.67;0.60;;;22.30;38.70;;;;;;5017352;28;20098;-48
2020/12/18 04:18:54;;;;;;;1.10;0.70;;;22.30;38.80;;;;;;5016453;28;20391;-49
2020/12/18 04:21:25;;;;;;;0.57;0.50;;;22.30;38.70;;;;;;5017160;28;20056;-50
2020/12/18 04:24:10;;;;;;;0.82;0.52;;;22.30;38.80;;;;;;5015424;28;20121;-49
2020/12/18 04:26:39;;;;;;;1.23;0.50;;;22.30;38.80;;;;;;5016733;28;20017;-46
2020/12/18 04:29:06;;;;;;;0.85;0.50;;;22.30;38.80;;;;;;5012764;28;20032;-47
2020/12/18 04:31:34;;;;;;;2.17;0.65;;;22.20;38.70;;;;;;5015737;28;20029;-49
2020/12/18 04:33:59;;;;;;;1.13;0.50;;;22.20;38.70;;;;;;5033642;28;20103;-47
2020/12/18 04:36:39;;;;;;;2.38;0.60;;;22.20;38.80;;;;;;5016914;28;20124;-46
2020/12/18 04:39:05;;;;;;;2.85;0.70;;;22.20;38.70;;;;;;5013910;28;20112;-49
2020/12/18 04:41:38;;;;;;;0.63;0.50;;;22.20;38.80;;;;;;5033392;28;20338;-51
2020/12/18 04:44:10;;;;;;;0.93;0.70;;;22.20;38.70;;;;;;5015978;28;20029;-51
2020/12/18 04:46:49;;;;;;;0.85;0.40;;;22.20;38.70;;;;;;5014865;28;20039;-50
2020/12/18 04:49:16;;;;;;;1.50;0.60;;;22.20;38.70;;;;;;5008339;28;20463;-50
2020/12/18 04:51:46;;;;;;;1.10;0.57;;;22.20;38.80;;;;;;5016267;28;20029;-50
2020/12/18 04:54:28;;;;;;;1.20;0.60;;;22.20;38.80;;;;;;5014855;28;20030;-46
2020/12/18 04:56:59;;;;;;;1.63;0.77;;;22.20;38.80;;;;;;5033264;28;20037;-51
2020/12/18 04:59:30;;;;;;;1.02;0.60;;;22.10;38.80;;;;;;5016597;28;20037;-50
2020/12/18 05:02:27;;;;;;;1.65;0.50;;;22.10;38.70;;;;;;5012664;28;20021;-48
2020/12/18 05:04:56;;;;;;;1.35;0.70;;;22.10;38.70;;;;;;5013852;28;20052;-51
2020/12/18 05:07:40;;;;;;;0.73;0.52;;;22.20;38.80;;;;;;5013982;28;20132;-51
2020/12/18 05:10:08;;;;;;;0.90;0.40;;;22.10;38.80;;;;;;5014756;28;20029;-50
2020/12/18 05:12:58;;;;;;;1.08;0.50;;;22.10;38.80;;;;;;5013292;28;20041;-50
2020/12/18 05:15:37;;;;;;;1.48;0.57;;;22.10;38.80;;;;;;5016026;28;20030;-51
2020/12/18 05:18:38;;;;;;;0.68;0.47;;;22.10;38.80;;;;;;4942615;29;20036;-49
2020/12/18 05:21:19;;;;;;;1.33;0.50;;;22.10;38.80;;;;;;5006321;28;20120;-48
2020/12/18 05:23:51;;;;;;;1.48;0.50;;;22.10;38.90;;;;;;5012678;28;20122;-46
2020/12/18 05:26:28;;;;;;;1.08;0.52;;;22.10;38.90;;;;;;5016151;28;20040;-49
2020/12/18 05:29:04;;;;;;;0.82;0.57;;;22.10;38.90;;;;;;5014296;28;20361;-47
2020/12/18 05:31:31;;;;;;;0.40;0.35;;;22.10;38.90;;;;;;5015957;28;20506;-48
2020/12/18 05:34:15;;;;;;;1.10;0.60;;;22.10;38.90;;;;;;5015007;28;20400;-54
2020/12/18 05:37:12;;;;;;;0.93;0.43;;;22.00;38.90;;;;;;5010496;28;20061;-48
2020/12/18 05:40:00;;;;;;;0.70;0.52;;;22.10;39.00;;;;;;5014376;28;20076;-51
2020/12/18 05:42:48;;;;;;;2.15;0.50;;;22.00;38.90;;;;;;5011227;28;20095;-46
2020/12/18 05:45:22;;;;;;;0.50;0.43;;;22.00;38.90;;;;;;5029734;28;20057;-51
2020/12/18 05:48:02;;;;;;;0.82;0.50;;;22.00;38.90;;;;;;5015071;28;20040;-51
2020/12/18 05:50:39;;;;;;;0.90;0.60;;;22.00;39.00;;;;;;5015604;28;20437;-48
2020/12/18 05:53:12;;;;;;;0.93;0.50;;;22.00;38.90;;;;;;5014361;28;20368;-48
2020/12/18 05:56:03;;;;;;;1.08;0.57;;;22.00;38.90;;;;;;5028922;28;20041;-48
2020/12/18 05:58:40;;;;;;;1.48;0.70;;;22.00;38.90;;;;;;5010904;28;20457;-51
2020/12/18 06:01:43;;;;;;;1.30;0.60;;;22.00;38.90;;;;;;5016425;28;20297;-48
2020/12/18 06:04:32;;;;;;;1.08;0.40;;;22.00;39.00;;;;;;5026992;28;20144;-51
2020/12/18 06:07:00;;;;;;;0.52;0.38;;;22.00;39.00;;;;;;5023566;28;20026;-50
2020/12/18 06:09:59;;;;;;;1.02;0.57;;;22.00;39.00;;;;;;4984558;28;20425;-49
2020/12/18 06:12:36;;;;;;;0.70;0.40;;;21.90;38.90;;;;;;5013363;28;20052;-51
2020/12/18 06:15:03;;;;;;;1.65;0.60;;;22.00;39.00;;;;;;5014219;28;20072;-47
2020/12/18 06:17:35;;;;;;;1.38;0.40;;;21.90;38.90;;;;;;5013857;28;20071;-52
2020/12/18 06:20:03;;;;;;;0.82;0.40;;;21.90;38.90;;;;;;5015641;28;20167;-49
2020/12/18 06:22:57;;;;;;;1.15;0.50;;;21.90;38.90;;;;;;5013410;28;20375;-48
2020/12/18 06:25:46;;;;;;;1.48;0.43;;;21.90;38.90;;;;;;4987612;28;20138;-47
2020/12/18 06:28:51;;;;;;;2.05;0.70;;;21.90;38.90;;;;;;4951683;28;20664;-46
2020/12/18 06:31:28;;;;;;;1.02;0.50;;;21.90;38.90;;;;;;4942130;29;20439;-54
2020/12/18 06:34:25;;;;;;;1.80;0.60;;;21.90;38.90;;;;;;5005769;28;20479;-47
2020/12/18 06:37:28;;;;;;;1.25;0.40;;;21.90;38.90;;;;;;5029863;28;20101;-49
2020/12/18 06:40:31;;;;;;;0.90;0.40;;;21.90;39.00;;;;;;4988468;28;20040;-54
2020/12/18 06:43:34;;;;;;;1.38;0.47;;;21.80;38.90;;;;;;5024836;28;20333;-49
2020/12/18 06:46:19;;;;;;;1.08;0.40;;;21.80;39.50;;;;;;5014736;28;20040;-49
2020/12/18 06:49:05;;;;;;;1.20;0.40;;;21.80;38.90;;;;;;5030007;28;20112;-48
2020/12/18 06:51:49;;;;;;;0.60;0.35;;;21.80;38.90;;;;;;5031071;28;20099;-53
2020/12/18 06:54:34;;;;;;;0.80;0.40;;;21.80;38.80;;;;;;5012518;28;20045;-54
2020/12/18 06:57:21;;;;;;;1.15;0.50;;;21.80;38.90;;;;;;5012297;28;20025;-49
2020/12/18 06:59:50;;;;;;;1.83;0.65;;;21.80;38.80;;;;;;5031521;28;20041;-49
2020/12/18 07:02:37;;;;;;;1.08;0.40;;;21.80;38.80;;;;;;5011978;28;20022;-49
2020/12/18 07:05:03;;;;;;;2.55;0.52;;;21.80;38.80;;;;;;5031124;28;20107;-49
2020/12/18 07:07:40;;;;;;;0.52;0.38;;;21.80;38.80;;;;;;5030192;28;20117;-50
2020/12/18 07:10:08;;;;;;;2.38;0.60;;;21.80;38.80;;;;;;5028476;28;20018;-50
2020/12/18 07:12:36;;;;;;;1.10;0.40;;;21.80;38.80;;;;;;5029004;28;20079;-49
2020/12/18 07:15:05;;;;;;;1.38;0.60;;;21.80;38.70;;;;;;5033450;28;20041;-50
2020/12/18 07:17:32;;;;;;;0.90;0.60;;;21.80;38.80;;;;;;5035298;28;20087;-49
2020/12/18 07:19:58;;;;;;;0.93;0.52;;;21.80;38.80;;;;;;5016443;28;20095;-50
2020/12/18 07:22:24;;;;;;;1.33;0.50;;;21.80;38.80;;;;;;5033698;28;20056;-48
2020/12/18 07:24:50;;;;;;;2.42;0.95;;;21.80;38.80;;;;;;5035817;28;20552;-50
2020/12/18 07:27:16;;;;;;;0.98;0.47;;;21.80;38.70;;;;;;5035271;28;20044;-50
2020/12/18 07:29:41;;;;;;;1.00;0.40;;;21.80;38.70;;;;;;5035086;28;20500;-48
2020/12/18 07:32:07;;;;;;;0.60;0.40;;;21.80;38.80;;;;;;5034410;28;20022;-52
2020/12/18 07:34:33;;;;;;;1.13;0.45;;;21.70;38.70;;;;;;5035898;28;20116;-51
2020/12/18 07:37:11;;;;;;;1.05;0.40;;;21.80;38.90;;;;;;5029347;28;20037;-50
2020/12/18 07:39:36;;;;;;;1.58;0.50;;;21.80;38.90;;;;;;5034711;28;20116;-47
2020/12/18 07:42:02;;;;;;;1.25;0.52;;;21.70;38.80;;;;;;5030975;28;20418;-48
2020/12/18 07:44:28;;;;;;;1.45;0.50;;;21.70;38.80;;;;;;5034528;28;20376;-51
2020/12/18 07:46:54;;;;;;;1.30;0.70;;;21.70;38.80;;;;;;5031760;28;20065;-48
2020/12/18 07:49:20;;;;;;;2.45;1.08;;;21.70;38.80;;;;;;5033776;28;20049;-47
2020/12/18 07:51:46;;;;;;;1.30;0.60;;;21.70;38.80;;;;;;5034203;28;20064;-51
2020/12/18 07:54:20;;;;;;;0.98;0.60;;;21.70;38.80;;;;;;5034590;28;20041;-53
2020/12/18 07:56:47;;;;;;;1.10;0.55;;;21.70;38.80;;;;;;5033163;28;20095;-53
2020/12/18 07:59:14;;;;;;;0.55;0.43;;;21.70;38.90;;;;;;5033609;28;20029;-51
2020/12/18 08:01:40;;;;;;;1.10;0.47;;;21.80;39.70;;;;;;5030494;28;20033;-51
2020/12/18 08:04:12;;;;;;;1.80;0.60;;;21.90;39.20;;;;;;5031848;28;20029;-50
2020/12/18 08:06:42;;;;;;;1.60;0.57;;;22.00;39.10;;;;;;5034019;28;20066;-52
2020/12/18 08:09:14;;;;;;;2.33;0.52;;;22.10;38.90;;;;;;5032304;28;20017;-55
2020/12/18 08:11:45;;;;;;;2.20;0.60;;;22.30;38.80;;;;;;5027480;28;20037;-55
2020/12/18 08:14:13;;;;;;;1.70;0.55;;;22.40;38.80;;;;;;5032541;28;20403;-54
2020/12/18 08:16:40;;;;;;;1.02;0.43;;;22.40;38.70;;;;;;5031119;28;20072;-51
2020/12/18 08:19:09;;;;;;;0.75;0.47;;;22.40;38.60;;;;;;5033604;28;20094;-53
2020/12/18 08:21:42;;;;;;;0.50;0.40;;;22.40;38.60;;;;;;5034764;28;20449;-51
2020/12/18 08:24:30;;;;;;;1.00;0.50;;;22.40;38.60;;;;;;5016137;28;20352;-50
2020/12/18 08:27:01;;;;;;;1.10;0.52;;;22.40;38.50;;;;;;5031549;28;20030;-50
2020/12/18 08:29:31;;;;;;;1.52;0.60;;;22.40;38.50;;;;;;5033262;28;20112;-45
2020/12/18 08:32:01;;;;;;;0.98;0.50;;;22.40;38.50;;;;;;5029655;28;20052;-47
2020/12/18 08:34:30;;;;;;;1.10;0.50;;;22.40;38.50;;;;;;5031108;28;20045;-50
2020/12/18 08:36:59;;;;;;;1.85;0.50;;;22.50;38.50;;;;;;5035703;28;20095;-51
2020/12/18 08:39:32;;;;;;;2.15;0.50;;;22.50;38.50;;;;;;5030010;28;20026;-47
2020/12/18 08:42:00;;;;;;;1.08;0.50;;;22.50;38.50;;;;;;5031693;28;20041;-49
2020/12/18 08:44:36;;;;;;;2.15;0.60;;;22.60;38.40;;;;;;5034590;28;20434;-49
2020/12/18 08:47:16;;;;;;;1.90;0.77;;;22.60;38.40;;;;;;5015935;28;20030;-46
2020/12/18 08:49:43;;;;;;;2.40;0.60;;;22.70;38.40;;;;;;5033954;28;20087;-49
2020/12/18 08:52:11;;;;;;;1.17;0.40;;;22.70;38.30;;;;;;5031902;28;20029;-50
2020/12/18 08:54:39;;;;;;;1.48;0.60;;;22.80;38.30;;;;;;5032276;28;20408;-55
2020/12/18 08:57:25;;;;;;;2.10;0.88;;;22.80;38.20;;;;;;5031942;28;20096;-50
2020/12/18 09:00:20;;;;;;;2.85;0.80;;;22.90;38.00;;;;;;5033353;28;20475;-52
2020/12/18 09:02:49;;;;;;;1.55;0.70;;;23.00;37.90;;;;;;5013544;28;20067;-48
2020/12/18 09:05:25;;;;;;;1.45;0.65;;;23.00;37.70;;;;;;5033447;28;20483;-52
2020/12/18 09:07:56;;;;;;;1.75;0.70;;;23.10;37.60;;;;;;5033526;28;20133;-53
2020/12/18 09:10:37;;;;;;;1.63;0.63;;;23.10;37.50;;;;;;5032866;28;20087;-49
2020/12/18 09:13:12;;;;;;;1.95;0.65;;;23.20;37.40;;;;;;5030413;28;20091;-53
2020/12/18 09:15:38;;;;;;;1.63;0.82;;;23.20;37.30;;;;;;5029964;28;20055;-52
2020/12/18 09:18:06;;;;;;;1.25;0.60;;;23.20;37.30;;;;;;5024883;28;20053;-53
2020/12/18 09:20:52;;;;;;;2.67;0.73;;;23.20;37.20;;;;;;5030099;28;20492;-51
2020/12/18 09:23:29;;;;;;;2.30;0.80;;;23.20;37.20;;;;;;5015963;28;20037;-54
2020/12/18 09:25:54;;;;;;;2.00;0.80;;;23.20;37.10;;;;;;5032115;28;20065;-49
2020/12/18 09:28:21;;;;;;;2.75;1.10;;;23.20;37.10;;;;;;5032844;28;20126;-51
2020/12/18 09:30:53;;;;;;;1.50;0.60;;;23.30;37.20;;;;;;5032613;28;20041;-53
2020/12/18 09:33:25;;;;;;;1.67;0.68;;;23.30;37.20;;;;;;5030100;28;20025;-50
2020/12/18 09:35:53;;;;;;;2.05;0.77;;;23.30;37.20;;;;;;5015533;28;20033;-53
2020/12/18 09:38:42;;;;;;;1.90;0.80;;;23.30;37.20;;;;;;5030454;28;20116;-51
2020/12/18 09:41:16;;;;;;;1.50;0.70;;;23.30;37.10;;;;;;5027789;28;20126;-51
2020/12/18 09:43:42;;;;;;;1.15;0.60;;;23.30;37.10;;;;;;5032007;28;20056;-50
2020/12/18 09:46:12;;;;;;;2.15;0.70;;;23.30;37.10;;;;;;5032279;28;20029;-48
2020/12/18 09:48:43;;;;;;;0.82;0.43;;;23.30;37.10;;;;;;5031218;28;20099;-53
2020/12/18 09:51:09;;;;;;;1.88;0.57;;;23.30;37.10;;;;;;5028068;28;20036;-49
2020/12/18 09:53:35;;;;;;;1.00;0.60;;;23.40;37.10;;;;;;5031084;28;20037;-49
2020/12/18 09:56:01;;;;;;;1.55;0.43;;;23.40;37.10;;;;;;5032867;28;20120;-53
2020/12/18 09:58:27;;;;;;;1.40;0.63;;;23.40;37.00;;;;;;5031688;28;20036;-48
2020/12/18 10:00:53;;;;;;;1.55;0.70;;;23.40;37.00;;;;;;5031568;28;20034;-48
2020/12/18 10:03:19;;;;;;;1.13;0.70;;;23.40;37.00;;;;;;5032673;28;20026;-49
2020/12/18 10:05:46;;;;;;;0.63;0.40;;;23.40;37.00;;;;;;5031980;28;20464;-53
2020/12/18 10:08:12;;;;;;;2.00;0.93;;;23.40;37.00;;;;;;5031093;28;20033;-52
2020/12/18 10:10:38;;;;;;;1.40;0.63;;;23.40;37.00;;;;;;5033105;28;20360;-49
2020/12/18 10:13:04;;;;;;;1.52;0.35;;;23.40;37.00;;;;;;5030203;28;20028;-51
2020/12/18 10:15:30;;;;;;;1.27;0.57;;;23.40;36.90;;;;;;5013082;28;20352;-49
2020/12/18 10:17:56;;;;;;;0.68;0.50;;;23.40;37.00;;;;;;5031675;28;20112;-50
2020/12/18 10:20:22;;;;;;;1.25;0.55;;;23.40;36.90;;;;;;5014366;28;20121;-43
2020/12/18 10:22:48;;;;;;;1.83;0.80;;;23.40;36.90;;;;;;5033497;28;20179;-50
2020/12/18 10:25:15;;;;;;;1.00;0.63;;;23.40;37.00;;;;;;5028374;28;20435;-52
2020/12/18 10:27:42;;;;;;;2.65;1.08;;;23.40;37.00;;;;;;5033089;28;20112;-50
2020/12/18 10:30:08;;;;;;;3.70;0.65;;;23.50;37.10;;;;;;5030936;28;20103;-48
2020/12/18 10:32:34;;;;;;;1.17;0.55;;;23.50;37.10;;;;;;5033387;28;20038;-51
2020/12/18 10:35:01;;;;;;;1.85;0.93;;;23.50;37.10;;;;;;4995380;28;20033;-50
2020/12/18 10:37:28;;;;;;;2.95;0.65;;;23.50;37.20;;;;;;5012710;28;20433;-47
2020/12/18 10:39:54;;;;;;;1.77;0.80;;;23.50;37.30;;;;;;5011902;28;20095;-50
2020/12/18 10:42:20;;;;;;;1.27;0.80;;;23.50;37.30;;;;;;5032977;28;20025;-52
2020/12/18 10:44:46;;;;;;;1.45;1.00;;;23.50;37.50;;;;;;5031878;28;20401;-52
2020/12/18 10:47:12;;;;;;;2.33;1.00;;;23.50;37.60;;;;;;5032551;28;20079;-51
2020/12/18 10:49:38;;;;;;;1.15;0.60;;;23.50;37.80;;;;;;5033650;28;20364;-53
2020/12/18 10:52:05;;;;;;;1.17;0.70;;;23.50;38.00;;;;;;5037643;28;20042;-51
2020/12/18 10:54:31;;;;;;;1.92;0.80;;;23.50;38.20;;;;;;5033801;28;20085;-51
2020/12/18 10:56:57;;;;;;;2.92;0.60;;;23.50;38.40;;;;;;5036214;28;20491;-49
2020/12/18 10:59:26;;;;;;;1.50;0.70;;;23.50;38.60;;;;;;5036718;28;20706;-49
2020/12/18 11:01:53;;;;;;;1.38;0.60;;;23.50;38.80;;;;;;5031118;28;20492;-53
2020/12/18 11:04:19;;;;;;;1.20;0.70;;;23.50;39.10;;;;;;5036087;28;20345;-51
2020/12/18 11:06:45;;;;;;;1.40;0.80;;;23.60;39.30;;;;;;5033634;28;20417;-48
2020/12/18 11:09:10;;;;;;;2.03;0.70;;;23.50;39.40;;;;;;5035846;28;20038;-51
2020/12/18 11:11:36;;;;;;;2.70;0.73;;;23.60;39.50;;;;;;5035003;28;20033;-50
2020/12/18 11:14:02;;;;;;;1.77;0.80;;;23.60;39.60;;;;;;5034741;28;20049;-51
2020/12/18 11:16:28;;;;;;;1.67;0.90;;;23.60;39.70;;;;;;5033086;28;20455;-48
2020/12/18 11:18:54;;;;;;;1.67;0.75;;;23.60;39.70;;;;;;5035515;28;20131;-48
2020/12/18 11:21:20;;;;;;;1.10;0.70;;;23.60;39.70;;;;;;5035798;28;20041;-54
2020/12/18 11:23:46;;;;;;;2.35;1.10;;;23.60;39.60;;;;;;5035563;28;20026;-49
2020/12/18 11:26:12;;;;;;;1.75;0.80;;;23.60;39.60;;;;;;5036022;28;20033;-53
2020/12/18 11:28:38;;;;;;;1.02;0.70;;;23.60;39.50;;;;;;5035401;28;20437;-54
2020/12/18 11:31:05;;;;;;;2.47;0.80;;;23.60;39.40;;;;;;5019597;28;20029;-54
2020/12/18 11:33:31;;;;;;;0.75;0.65;;;23.60;39.30;;;;;;5030777;28;20045;-56
2020/12/18 11:35:57;;;;;;;1.25;0.60;;;23.60;39.30;;;;;;5033432;28;20337;-52
2020/12/18 11:38:23;;;;;;;1.90;0.80;;;23.70;39.30;;;;;;5031450;28;20026;-54
2020/12/18 11:40:49;;;;;;;2.08;0.77;;;23.70;39.40;;;;;;5035552;28;20432;-50
2020/12/18 11:43:15;;;;;;;2.05;1.10;;;23.70;39.40;;;;;;5036678;28;20380;-54
2020/12/18 11:45:41;;;;;;;2.78;1.50;;;23.70;39.30;;;;;;5039321;28;20037;-55
2020/12/18 11:48:06;;;;;;;4.97;1.80;;;23.70;39.30;;;;;;5034822;28;20078;-56
2020/12/18 11:50:32;;;;;;;2.53;1.40;;;23.80;39.30;;;;;;5031215;28;20084;-57
2020/12/18 11:52:59;;;;;;;3.90;1.40;;;23.80;39.20;;;;;;5035577;28;20511;-57
2020/12/18 11:55:26;;;;;;;3.25;1.40;;;23.80;39.30;;;;;;5034733;28;20049;-55
2020/12/18 11:57:53;;;;;;;4.07;1.35;;;23.80;39.20;;;;;;5033510;28;20044;-58
2020/12/18 12:00:22;;;;;;;1.80;0.90;;;23.80;39.30;;;;;;5028424;28;20040;-54
2020/12/18 12:02:49;;;;;;;1.95;1.00;;;23.90;39.40;;;;;;5034813;28;20033;-58
2020/12/18 12:05:17;;;;;;;3.25;1.30;;;23.80;39.50;;;;;;5034468;28;20045;-54
2020/12/18 12:07:43;;;;;;;4.05;1.25;;;23.80;39.70;;;;;;5032449;28;20029;-54
2020/12/18 12:10:10;;;;;;;1.75;0.90;;;23.80;39.90;;;;;;5031619;28;20433;-57
2020/12/18 12:12:36;;;;;;;1.70;1.05;;;23.90;40.10;;;;;;5034982;28;20083;-55
2020/12/18 12:15:06;;;;;;;3.60;1.23;;;23.90;40.20;;;;;;5030912;28;20484;-51
2020/12/18 12:17:32;;;;;;;2.65;1.10;;;23.90;40.30;;;;;;5034773;28;20108;-55
2020/12/18 12:19:58;;;;;;;2.58;0.90;;;23.90;40.40;;;;;;5031185;28;20385;-55
2020/12/18 12:22:24;;;;;;;2.05;1.10;;;24.00;40.50;;;;;;5034913;28;20029;-55
2020/12/18 12:24:54;;;;;;;1.95;1.10;;;24.00;40.50;;;;;;5033061;28;20103;-57
2020/12/18 12:27:22;;;;;;;3.78;1.15;;;24.00;40.50;;;;;;5032761;28;20030;-55
2020/12/18 12:29:48;;;;;;;2.35;1.00;;;24.00;40.50;;;;;;5034525;28;20044;-55
2020/12/18 12:32:14;;;;;;;1.98;1.08;;;24.00;40.40;;;;;;5034887;28;20033;-54
2020/12/18 12:34:41;;;;;;;2.88;1.17;;;24.00;40.30;;;;;;5033400;28;20037;-54
2020/12/18 12:37:07;;;;;;;2.30;1.20;;;24.00;40.20;;;;;;5034567;28;20061;-54
2020/12/18 12:39:34;;;;;;;2.22;0.98;;;24.00;40.10;;;;;;5028694;28;20056;-51
2020/12/18 12:42:04;;;;;;;2.30;0.88;;;24.10;40.10;;;;;;5033142;28;20029;-55
2020/12/18 12:44:30;;;;;;;3.58;1.00;;;24.10;40.00;;;;;;5032577;28;20125;-52
2020/12/18 12:46:56;;;;;;;2.30;1.02;;;24.20;39.90;;;;;;5030267;28;20026;-57
2020/12/18 12:49:22;;;;;;;1.48;0.70;;;24.30;39.70;;;;;;5015388;28;20030;-51
2020/12/18 12:51:48;;;;;;;1.50;0.90;;;24.30;39.50;;;;;;5033903;28;20479;-54
2020/12/18 12:54:14;;;;;;;2.80;1.20;;;24.30;39.40;;;;;;5026601;28;20125;-55
2020/12/18 12:56:41;;;;;;;1.60;1.00;;;24.30;39.30;;;;;;5034526;28;20030;-47
2020/12/18 12:59:07;;;;;;;1.85;1.00;;;24.30;39.40;;;;;;5031288;28;20353;-51
2020/12/18 13:01:33;;;;;;;3.10;1.10;;;24.30;39.40;;;;;;5033634;28;20033;-48
2020/12/18 13:03:59;;;;;;;2.25;0.90;;;24.30;39.40;;;;;;5033610;28;20029;-49
2020/12/18 13:06:26;;;;;;;1.55;0.85;;;24.30;39.40;;;;;;5013919;28;20061;-54
2020/12/18 13:08:52;;;;;;;1.52;1.00;;;24.30;39.50;;;;;;5012601;28;20356;-52
2020/12/18 13:11:19;;;;;;;2.05;0.90;;;24.30;39.60;;;;;;5013389;28;20034;-49